createdAt,value
2022-12-17T00:06:56.525Z,58.98
2022-12-17T00:09:36.916Z,58.54
2022-12-17T00:12:10.152Z,59.80
2022-12-17T00:14:43.972Z,60.40
2022-12-17T00:17:17.131Z,59.97
2022-12-17T00:33:32.052Z,59.22
2022-12-17T00:36:06.065Z,58.30
2022-12-17T00:41:16.933Z,57.97
2022-12-17T00:43:43.669Z,59.90
2022-12-17T00:46:23.951Z,59.96
2022-12-17T00:48:59.079Z,59.67
2022-12-17T00:58:35.001Z,58.14
2022-12-17T01:01:08.743Z,58.02
2022-12-17T01:03:48.900Z,57.69
2022-12-17T01:06:24.130Z,57.43
2022-12-17T01:08:56.928Z,57.92
2022-12-17T01:11:30.210Z,59.20
2022-12-17T01:14:03.909Z,57.03
2022-12-17T01:27:22.879Z,56.42
2022-12-17T01:29:56.323Z,57.09
2022-12-17T01:32:40.913Z,56.28
2022-12-17T01:35:14.453Z,57.29
2022-12-17T01:37:47.893Z,57.21
2022-12-17T01:54:25.876Z,58.08
2022-12-17T01:57:08.880Z,58.15
2022-12-17T01:59:50.821Z,57.76
2022-12-17T02:02:31.704Z,57.35
2022-12-17T02:05:05.917Z,58.47
2022-12-17T02:07:55.889Z,57.54
2022-12-17T02:21:08.913Z,56.86
2022-12-17T02:23:56.517Z,58.10
2022-12-17T02:26:44.969Z,59.51
2022-12-17T02:29:22.500Z,57.18
2022-12-17T02:32:02.951Z,57.58
2022-12-17T02:45:33.925Z,57.63
2022-12-17T02:48:09.609Z,58.06
2022-12-17T02:50:45.864Z,56.17
2022-12-17T02:53:19.891Z,58.54
2022-12-17T02:55:52.878Z,58.71
2022-12-17T02:58:27.013Z,58.08
2022-12-17T03:14:41.888Z,57.57
2022-12-17T03:17:15.205Z,57.47
2022-12-17T03:19:48.944Z,57.46
2022-12-17T03:22:22.236Z,57.68
2022-12-17T03:24:55.900Z,57.44
2022-12-17T03:27:29.152Z,57.32
2022-12-17T03:40:18.841Z,57.43
2022-12-17T03:42:58.857Z,56.44
2022-12-17T03:45:32.192Z,57.54
2022-12-17T03:48:13.872Z,57.52
2022-12-17T03:50:47.080Z,56.06
2022-12-17T03:53:20.883Z,56.06
2022-12-17T04:06:32.912Z,56.60
2022-12-17T04:09:06.145Z,56.81
2022-12-17T04:11:40.960Z,56.47
2022-12-17T04:14:14.337Z,56.29
2022-12-17T04:16:47.857Z,56.40
2022-12-17T04:33:24.828Z,57.20
2022-12-17T04:36:04.840Z,56.98
2022-12-17T04:38:38.121Z,56.92
2022-12-17T04:41:11.847Z,56.37
2022-12-17T04:43:45.138Z,58.61
2022-12-17T04:46:18.945Z,57.86
2022-12-17T04:48:54.218Z,57.09
2022-12-17T05:01:42.895Z,57.27
2022-12-17T05:04:24.864Z,57.47
2022-12-17T05:07:01.175Z,57.03
2022-12-17T05:09:34.856Z,56.94
2022-12-17T05:12:08.098Z,58.05
2022-12-17T05:28:25.845Z,56.99
2022-12-17T05:30:59.318Z,56.73
2022-12-17T05:33:32.973Z,56.03
2022-12-17T05:36:07.130Z,57.07
2022-12-17T05:38:40.853Z,56.70
2022-12-17T05:41:14.700Z,57.57
2022-12-17T05:43:52.848Z,55.76
2022-12-17T05:53:38.230Z,55.62
2022-12-17T05:56:18.864Z,55.32
2022-12-17T05:58:54.097Z,54.53
2022-12-17T06:01:27.927Z,55.71
2022-12-17T06:04:04.457Z,54.65
2022-12-17T06:06:37.841Z,55.06
2022-12-17T06:09:14.117Z,52.91
2022-12-17T06:22:03.870Z,52.73
2022-12-17T06:24:46.080Z,51.56
2022-12-17T06:27:20.060Z,50.52
2022-12-17T06:29:53.844Z,50.24
2022-12-17T06:32:27.213Z,51.14
2022-12-17T06:48:42.919Z,50.45
2022-12-17T06:51:16.122Z,50.91
2022-12-17T06:53:49.829Z,49.33
2022-12-17T06:56:23.090Z,49.55
2022-12-17T06:58:56.824Z,50.84
2022-12-17T07:01:30.349Z,51.42
2022-12-17T07:04:05.836Z,51.48
2022-12-17T07:13:50.806Z,50.86
2022-12-17T07:16:30.936Z,50.07
2022-12-17T07:19:06.072Z,51.85
2022-12-17T07:21:40.383Z,51.85
2022-12-17T07:24:14.196Z,51.28
2022-12-17T07:26:47.824Z,51.86
2022-12-17T07:42:24.815Z,52.64
2022-12-17T07:45:04.828Z,53.32
2022-12-17T07:47:38.054Z,52.45
2022-12-17T07:50:11.817Z,54.07
2022-12-17T07:52:45.120Z,53.42
2022-12-17T08:08:59.815Z,52.63
2022-12-17T08:11:33.036Z,52.91
2022-12-17T08:14:06.833Z,53.07
2022-12-17T08:16:40.207Z,53.60
2022-12-17T08:19:13.860Z,53.23
2022-12-17T08:21:47.256Z,55.32
2022-12-17T08:33:52.787Z,54.17
2022-12-17T08:36:32.841Z,54.29
2022-12-17T08:39:06.091Z,54.56
2022-12-17T08:41:40.800Z,54.96
2022-12-17T08:44:14.040Z,55.59
2022-12-17T08:46:40.766Z,58.48
2022-12-17T09:02:17.953Z,155.94
2022-12-17T09:04:51.148Z,155.57
2022-12-17T09:07:24.805Z,166.16
2022-12-17T09:10:01.116Z,170.58
2022-12-17T09:12:34.800Z,144.99
2022-12-17T09:29:11.764Z,71.33
2022-12-17T09:31:51.796Z,66.45
2022-12-17T09:34:25.116Z,61.19
2022-12-17T09:37:01.793Z,59.05
2022-12-17T09:39:35.193Z,58.95
2022-12-17T09:42:23.859Z,58.23
2022-12-17T09:55:41.832Z,55.67
2022-12-17T09:58:21.649Z,55.03
2022-12-17T10:01:02.867Z,54.89
2022-12-17T10:03:40.016Z,55.50
2022-12-17T10:06:27.794Z,54.91
2022-12-17T10:09:10.037Z,55.73
2022-12-17T10:22:16.768Z,53.57
2022-12-17T10:24:56.777Z,53.83
2022-12-17T10:27:30.153Z,52.15
2022-12-17T10:30:05.073Z,51.06
2022-12-17T10:32:38.050Z,52.33
2022-12-17T10:48:52.796Z,53.20
2022-12-17T10:51:33.448Z,51.41
2022-12-17T10:54:28.778Z,47.28
2022-12-17T10:57:02.128Z,46.47
2022-12-17T10:59:41.764Z,46.61
2022-12-17T11:02:21.327Z,45.62
2022-12-17T11:15:32.799Z,43.68
2022-12-17T11:18:23.836Z,42.63
2022-12-17T11:21:06.988Z,43.86
2022-12-17T11:23:52.829Z,43.79
2022-12-17T11:26:30.824Z,44.37
2022-12-17T11:29:10.772Z,46.37
2022-12-17T11:42:42.773Z,44.59
2022-12-17T11:45:28.693Z,42.73
2022-12-17T11:48:20.765Z,43.62
2022-12-17T11:51:01.964Z,42.94
2022-12-17T11:54:05.760Z,43.39
2022-12-17T12:07:37.781Z,43.24
2022-12-17T12:10:21.936Z,42.91
2022-12-17T12:13:13.786Z,45.10
2022-12-17T12:16:05.305Z,44.03
2022-12-17T12:19:01.837Z,45.31
2022-12-17T12:21:40.387Z,46.19
2022-12-17T12:34:45.734Z,42.56
2022-12-17T12:37:28.515Z,42.53
2022-12-17T12:40:19.488Z,42.14
2022-12-17T12:43:09.760Z,41.72
2022-12-17T12:45:55.016Z,42.26
2022-12-17T12:48:48.768Z,41.72
2022-12-17T13:02:01.018Z,40.41
2022-12-17T13:04:36.516Z,40.44
2022-12-17T13:07:09.744Z,41.57
2022-12-17T13:09:51.040Z,41.00
2022-12-17T13:12:40.748Z,40.85
2022-12-17T13:29:30.751Z,39.28
2022-12-17T13:32:27.739Z,40.18
2022-12-17T13:35:32.776Z,40.34
2022-12-17T13:38:37.867Z,41.38
2022-12-17T13:41:13.956Z,39.89
2022-12-17T13:43:52.747Z,40.90
2022-12-17T13:54:22.704Z,39.43
2022-12-17T13:57:13.740Z,40.69
2022-12-17T13:59:50.976Z,39.68
2022-12-17T14:02:33.882Z,40.21
2022-12-17T14:05:23.875Z,37.72
2022-12-17T14:08:08.777Z,40.44
2022-12-17T14:21:20.738Z,38.78
2022-12-17T14:23:56.405Z,39.86
2022-12-17T14:26:30.759Z,38.62
2022-12-17T14:29:13.001Z,37.61
2022-12-17T14:31:59.774Z,38.60
2022-12-17T14:48:36.975Z,38.70
2022-12-17T14:51:28.752Z,37.04
2022-12-17T14:54:20.665Z,35.90
2022-12-17T14:57:01.725Z,37.14
2022-12-17T14:59:43.928Z,36.42
2022-12-17T15:02:29.903Z,37.20
2022-12-17T15:15:41.728Z,36.67
2022-12-17T15:18:15.012Z,36.69
2022-12-17T15:20:49.707Z,37.24
2022-12-17T15:23:24.673Z,37.87
2022-12-17T15:26:00.741Z,35.67
2022-12-17T15:28:34.290Z,35.95
2022-12-17T15:41:29.697Z,37.49
2022-12-17T15:44:10.478Z,37.04
2022-12-17T15:46:44.034Z,36.37
2022-12-17T15:49:17.707Z,34.79
2022-12-17T15:51:50.973Z,35.97
2022-12-17T15:54:24.720Z,35.61
2022-12-17T15:56:59.927Z,34.84
2022-12-17T16:09:02.689Z,35.53
2022-12-17T16:11:42.712Z,35.00
2022-12-17T16:14:17.884Z,35.15
2022-12-17T16:16:50.715Z,36.52
2022-12-17T16:19:24.107Z,37.73
2022-12-17T16:21:57.725Z,36.60
2022-12-17T16:24:31.005Z,36.80
2022-12-17T16:37:20.677Z,37.55
2022-12-17T16:40:00.993Z,35.15
2022-12-17T16:42:33.937Z,35.52
2022-12-17T16:45:00.664Z,35.27
2022-12-17T16:47:41.257Z,36.00
2022-12-17T17:01:36.875Z,35.61
2022-12-17T17:04:15.438Z,37.32
2022-12-17T17:06:59.726Z,35.93
2022-12-17T17:09:33.269Z,37.36
2022-12-17T17:12:06.707Z,37.18
2022-12-17T17:14:39.949Z,35.36
2022-12-17T17:17:13.684Z,37.27
2022-12-17T17:30:25.688Z,35.42
2022-12-17T17:32:58.933Z,36.53
2022-12-17T17:35:25.656Z,35.04
2022-12-17T17:38:05.720Z,35.73
2022-12-17T17:40:38.968Z,36.52
2022-12-17T17:43:12.706Z,35.27
2022-12-17T17:56:28.678Z,35.65
2022-12-17T17:59:06.628Z,37.74
2022-12-17T18:01:49.871Z,39.22
2022-12-17T18:04:23.043Z,37.58
2022-12-17T18:22:53.648Z,38.87
2022-12-17T18:25:37.482Z,38.73
2022-12-17T18:28:11.020Z,38.02
2022-12-17T18:30:44.694Z,38.90
2022-12-17T18:33:17.957Z,38.17
2022-12-17T18:35:51.725Z,37.59
2022-12-17T18:38:27.138Z,39.04
2022-12-17T18:48:36.914Z,39.46
2022-12-17T18:51:10.913Z,39.22
2022-12-17T18:53:46.210Z,39.69
2022-12-17T18:56:44.828Z,39.98
2022-12-17T18:59:25.577Z,39.14
2022-12-17T19:02:02.065Z,39.42
2022-12-17T19:04:35.752Z,40.24
2022-12-17T19:17:54.676Z,37.64
2022-12-17T19:20:27.955Z,38.00
2022-12-17T19:23:01.694Z,37.98
2022-12-17T19:25:34.940Z,36.14
2022-12-17T19:28:08.680Z,37.45
2022-12-17T19:42:05.648Z,37.16
2022-12-17T19:44:40.884Z,36.53
2022-12-17T19:47:13.661Z,37.06
2022-12-17T19:49:47.076Z,37.58
2022-12-17T19:52:20.662Z,38.06
2022-12-17T19:54:53.908Z,38.28
2022-12-17T19:57:20.647Z,37.50
2022-12-17T20:10:17.639Z,33.78
2022-12-17T20:12:57.652Z,35.37
2022-12-17T20:15:31.096Z,34.18
2022-12-17T20:18:04.721Z,35.59
2022-12-17T20:20:38.327Z,34.79
2022-12-17T20:23:11.675Z,33.74
2022-12-17T20:36:28.688Z,31.66
2022-12-17T20:39:02.608Z,31.12
2022-12-17T20:41:37.671Z,30.71
2022-12-17T20:44:13.770Z,30.82
2022-12-17T20:46:47.663Z,30.90
2022-12-17T20:49:27.140Z,31.90
2022-12-17T21:02:30.865Z,28.79
2022-12-17T21:05:13.721Z,28.15
2022-12-17T21:07:48.960Z,28.67
2022-12-17T21:10:22.660Z,28.33
2022-12-17T21:12:55.899Z,27.15
2022-12-17T21:15:22.621Z,26.76
2022-12-17T21:18:04.658Z,26.85
2022-12-17T21:31:22.749Z,26.15
2022-12-17T21:34:01.400Z,26.05
2022-12-17T21:36:50.628Z,24.21
2022-12-17T21:39:24.584Z,24.84
2022-12-17T21:42:04.664Z,24.35
2022-12-17T21:44:37.850Z,24.91
